createdAt,value
2018-04-22T00:01:36.207Z,38.73
2018-04-22T00:04:03.168Z,29.43
2018-04-22T00:06:30.182Z,29.97
2018-04-22T00:08:56.406Z,31.97
2018-04-22T00:11:22.631Z,25.03
2018-04-22T00:13:48.895Z,30.40
2018-04-22T00:16:15.130Z,27.03
2018-04-22T00:18:42.465Z,28.93
2018-04-22T00:21:08.717Z,34.17
2018-04-22T00:23:34.909Z,26.83
2018-04-22T00:26:01.141Z,25.03
2018-04-22T00:28:27.392Z,25.67
2018-04-22T00:30:53.617Z,28.03
2018-04-22T00:33:19.857Z,36.53
2018-04-22T00:35:46.085Z,25.43
2018-04-22T00:38:12.307Z,23.10
2018-04-22T00:40:38.514Z,32.43
2018-04-22T00:43:05.497Z,27.03
2018-04-22T00:45:31.718Z,26.93
2018-04-22T00:47:58.682Z,24.43
2018-04-22T00:50:25.652Z,27.40
2018-04-22T00:52:51.878Z,28.40
2018-04-22T00:55:18.859Z,22.77
2018-04-22T00:57:45.114Z,26.63
2018-04-22T01:00:11.391Z,29.47
2018-04-22T01:02:37.594Z,28.90
2018-04-22T01:05:03.830Z,30.77
2018-04-22T01:07:30.074Z,23.63
2018-04-22T01:09:56.296Z,27.43
2018-04-22T01:12:22.572Z,25.40
2018-04-22T01:14:48.798Z,28.77
2018-04-22T01:17:15.043Z,27.93
2018-04-22T01:19:41.731Z,24.40
2018-04-22T01:22:07.970Z,32.93
2018-04-22T01:24:34.184Z,27.57
2018-04-22T01:27:00.423Z,24.80
2018-04-22T01:29:26.638Z,26.67
2018-04-22T01:31:52.854Z,26.67
2018-04-22T01:34:19.828Z,26.17
2018-04-22T01:36:46.050Z,32.10
2018-04-22T01:39:13.012Z,34.50
2018-04-22T01:41:39.993Z,24.20
2018-04-22T01:44:06.199Z,25.73
2018-04-22T01:46:32.414Z,29.03
2018-04-22T01:48:59.382Z,32.10
2018-04-22T01:51:25.623Z,36.80
2018-04-22T01:53:51.845Z,28.37
2018-04-22T01:56:18.055Z,28.63
2018-04-22T01:58:44.274Z,30.33
2018-04-22T02:01:11.284Z,25.83
2018-04-22T02:03:37.542Z,27.70
2018-04-22T02:06:03.803Z,28.93
2018-04-22T02:08:30.777Z,27.77
2018-04-22T02:10:57.783Z,32.67
2018-04-22T02:13:24.007Z,34.77
2018-04-22T02:15:50.213Z,50.50
2018-04-22T02:18:17.209Z,43.23
2018-04-22T02:20:44.172Z,31.40
2018-04-22T02:23:14.609Z,26.90
2018-04-22T02:25:40.856Z,29.40
2018-04-22T02:28:07.072Z,28.40
2018-04-22T02:30:33.285Z,29.93
2018-04-22T02:33:00.262Z,25.17
2018-04-22T02:35:27.593Z,29.03
2018-04-22T02:37:54.565Z,32.67
2018-04-22T02:40:21.547Z,39.33
2018-04-22T02:42:47.786Z,32.87
2018-04-22T02:45:14.002Z,28.17
2018-04-22T02:47:40.254Z,26.50
2018-04-22T02:50:13.246Z,26.73
2018-04-22T02:52:40.209Z,27.73
2018-04-22T02:55:06.464Z,30.87
2018-04-22T02:57:32.683Z,26.57
2018-04-22T02:59:59.695Z,27.40
2018-04-22T03:02:25.918Z,30.23
2018-04-22T03:04:52.150Z,30.03
2018-04-22T03:07:18.384Z,29.33
2018-04-22T03:09:44.611Z,26.47
2018-04-22T03:12:10.840Z,31.97
2018-04-22T03:14:37.793Z,27.70
2018-04-22T03:17:04.771Z,28.70
2018-04-22T03:19:30.975Z,25.60
2018-04-22T03:21:57.345Z,18.60
2018-04-22T03:24:23.590Z,21.50
2018-04-22T03:26:49.806Z,20.93
2018-04-22T03:29:16.779Z,22.20
2018-04-22T03:31:43.007Z,26.43
2018-04-22T03:34:09.951Z,26.50
2018-04-22T03:36:36.925Z,23.57
2018-04-22T03:39:03.209Z,25.07
2018-04-22T03:41:29.425Z,28.40
2018-04-22T03:43:55.642Z,28.23
2018-04-22T03:46:22.634Z,23.40
2018-04-22T03:48:48.870Z,32.10
2018-04-22T03:51:15.086Z,32.77
2018-04-22T03:53:41.320Z,28.23
2018-04-22T03:56:08.282Z,24.83
2018-04-22T03:58:35.270Z,26.57
2018-04-22T04:01:01.542Z,21.70
2018-04-22T04:03:27.783Z,19.60
2018-04-22T04:05:53.996Z,25.10
2018-04-22T04:08:20.213Z,25.13
2018-04-22T04:10:46.432Z,25.43
2018-04-22T04:13:13.412Z,28.80
2018-04-22T04:15:39.666Z,30.23
2018-04-22T04:21:22.852Z,31.50
2018-04-22T04:27:14.011Z,24.50
2018-04-22T04:29:40.254Z,25.60
2018-04-22T04:32:06.489Z,23.00
2018-04-22T04:34:32.709Z,27.70
2018-04-22T04:36:58.929Z,22.90
2018-04-22T04:39:25.873Z,22.87
2018-04-22T04:41:52.131Z,24.50
2018-04-22T04:44:19.097Z,23.95
2018-04-22T04:46:46.059Z,30.00
2018-04-22T04:49:12.307Z,29.73
2018-04-22T04:51:38.505Z,33.57
2018-04-22T04:54:04.721Z,26.30
2018-04-22T04:56:30.987Z,28.92
2018-04-22T04:58:57.215Z,24.65
2018-04-22T05:01:23.457Z,26.97
2018-04-22T05:03:49.707Z,27.45
2018-04-22T05:06:15.927Z,31.73
2018-04-22T05:08:42.151Z,33.23
2018-04-22T05:11:08.419Z,27.75
2018-04-22T05:13:34.629Z,26.93
2018-04-22T05:16:00.870Z,27.63
2018-04-22T05:18:27.149Z,32.83
2018-04-22T05:20:53.391Z,32.67
2018-04-22T05:23:19.606Z,24.10
2018-04-22T05:25:46.357Z,30.30
2018-04-22T05:28:12.573Z,27.13
2018-04-22T05:30:38.801Z,23.70
2018-04-22T05:33:05.057Z,29.20
2018-04-22T05:35:31.264Z,25.60
2018-04-22T05:37:58.228Z,29.93
2018-04-22T05:40:25.198Z,29.23
2018-04-22T05:42:51.426Z,26.93
2018-04-22T05:45:17.643Z,24.33
2018-04-22T05:47:43.884Z,35.80
2018-04-22T05:50:10.101Z,25.77
2018-04-22T05:52:36.342Z,23.53
2018-04-22T05:55:02.609Z,26.13
2018-04-22T05:57:28.834Z,24.37
2018-04-22T05:59:55.183Z,34.03
2018-04-22T06:02:21.425Z,25.57
2018-04-22T06:04:47.682Z,28.10
2018-04-22T06:07:13.906Z,29.17
2018-04-22T06:09:40.198Z,35.00
2018-04-22T06:12:06.480Z,36.67
2018-04-22T06:14:32.720Z,34.67
2018-04-22T06:16:58.986Z,32.57
2018-04-22T06:19:25.182Z,24.23
2018-04-22T06:21:51.400Z,28.00
2018-04-22T06:24:17.658Z,32.37
2018-04-22T06:26:44.852Z,22.73
2018-04-22T06:29:11.082Z,21.30
2018-04-22T06:31:37.335Z,25.50
2018-04-22T06:34:03.563Z,22.90
2018-04-22T06:36:29.816Z,31.20
2018-04-22T06:38:56.086Z,22.90
2018-04-22T06:41:23.044Z,20.30
2018-04-22T06:43:49.269Z,30.90
2018-04-22T06:46:15.502Z,24.60
2018-04-22T06:48:41.781Z,24.23
2018-04-22T06:51:08.032Z,23.13
2018-04-22T06:53:34.288Z,23.57
2018-04-22T06:56:00.502Z,19.97
2018-04-22T06:58:26.714Z,26.30
2018-04-22T07:00:53.698Z,23.37
2018-04-22T07:03:19.917Z,21.50
2018-04-22T07:05:48.913Z,23.27
2018-04-22T07:08:15.145Z,26.90
2018-04-22T07:10:41.345Z,22.40
2018-04-22T07:13:07.702Z,21.27
2018-04-22T07:15:33.950Z,26.77
2018-04-22T07:18:00.167Z,22.07
2018-04-22T07:20:26.388Z,27.30
2018-04-22T07:22:52.653Z,26.17
2018-04-22T07:25:18.872Z,23.60
2018-04-22T07:27:45.281Z,19.93
2018-04-22T07:30:11.532Z,23.03
2018-04-22T07:32:37.725Z,30.80
2018-04-22T07:35:03.951Z,22.00
2018-04-22T07:37:30.219Z,24.73
2018-04-22T07:39:56.454Z,21.33
2018-04-22T07:42:22.718Z,21.43
2018-04-22T07:44:48.978Z,26.93
2018-04-22T07:47:15.963Z,25.00
2018-04-22T07:49:42.191Z,23.50
2018-04-22T07:52:09.214Z,27.23
2018-04-22T07:54:35.450Z,20.13
2018-04-22T07:57:01.694Z,21.73
2018-04-22T07:59:27.971Z,18.20
2018-04-22T08:01:55.109Z,20.70
2018-04-22T08:04:21.456Z,23.10
2018-04-22T08:06:47.717Z,16.37
2018-04-22T08:09:13.919Z,25.50
2018-04-22T08:11:40.880Z,20.20
2018-04-22T08:14:07.141Z,16.33
2018-04-22T08:16:33.374Z,20.40
2018-04-22T08:18:59.642Z,21.00
2018-04-22T08:21:25.862Z,15.47
2018-04-22T08:23:52.109Z,17.70
2018-04-22T08:26:19.077Z,20.60
2018-04-22T08:28:45.432Z,19.30
2018-04-22T08:31:11.682Z,19.90
2018-04-22T08:33:37.920Z,22.30
2018-04-22T08:36:04.148Z,20.23
2018-04-22T08:38:30.396Z,17.03
2018-04-22T08:40:56.620Z,21.33
2018-04-22T08:43:23.636Z,17.97
2018-04-22T08:45:49.894Z,20.40
2018-04-22T08:48:16.132Z,17.37
2018-04-22T08:50:42.647Z,20.20
2018-04-22T08:53:09.584Z,18.93
2018-04-22T08:55:35.822Z,17.50
2018-04-22T08:58:02.083Z,21.13
2018-04-22T09:00:28.338Z,21.60
2018-04-22T09:02:54.560Z,16.47
2018-04-22T09:05:20.807Z,17.80
2018-04-22T09:07:47.047Z,19.17
2018-04-22T09:10:13.288Z,17.53
2018-04-22T09:12:39.550Z,21.07
2018-04-22T09:15:05.806Z,15.20
2018-04-22T09:17:32.048Z,17.17
2018-04-22T09:19:59.055Z,17.30
2018-04-22T09:22:25.293Z,14.77
2018-04-22T09:24:51.527Z,14.60
2018-04-22T09:27:17.775Z,18.23
2018-04-22T09:29:44.452Z,19.37
2018-04-22T09:32:11.420Z,17.53
2018-04-22T09:34:37.679Z,18.03
2018-04-22T09:37:04.648Z,20.57
2018-04-22T09:39:31.605Z,24.13
2018-04-22T09:41:57.843Z,17.87
2018-04-22T09:44:24.054Z,14.70
2018-04-22T09:46:50.280Z,22.43
2018-04-22T09:49:16.530Z,18.50
2018-04-22T09:51:42.816Z,17.60
2018-04-22T09:54:09.028Z,19.37
2018-04-22T09:56:35.317Z,14.67
2018-04-22T09:59:01.551Z,16.57
2018-04-22T10:01:33.726Z,27.47
2018-04-22T10:03:59.978Z,14.33
2018-04-22T10:06:26.205Z,15.57
2018-04-22T10:08:52.434Z,16.50
2018-04-22T10:11:19.423Z,18.93
2018-04-22T10:13:45.668Z,17.10
2018-04-22T10:16:11.894Z,21.60
2018-04-22T10:18:38.131Z,18.20
2018-04-22T10:21:04.358Z,21.23
2018-04-22T10:23:30.590Z,17.17
2018-04-22T10:25:57.567Z,12.20
2018-04-22T10:28:23.871Z,19.60
2018-04-22T10:30:50.487Z,15.13
2018-04-22T10:33:16.722Z,18.97
2018-04-22T10:35:42.962Z,13.53
2018-04-22T10:38:09.197Z,22.83
2018-04-22T10:40:35.457Z,13.90
2018-04-22T10:43:01.682Z,17.57
2018-04-22T10:45:27.934Z,16.20
2018-04-22T10:47:54.174Z,25.10
2018-04-22T10:50:20.432Z,20.20
2018-04-22T10:52:46.733Z,19.53
2018-04-22T10:55:13.029Z,15.50
2018-04-22T10:57:39.318Z,16.63
2018-04-22T11:00:05.547Z,16.00
2018-04-22T11:02:31.846Z,18.37
2018-04-22T11:04:58.084Z,19.03
2018-04-22T11:07:25.122Z,13.47
2018-04-22T11:09:51.381Z,25.03
2018-04-22T11:12:17.613Z,18.60
2018-04-22T11:14:43.855Z,14.57
2018-04-22T11:17:10.106Z,19.27
2018-04-22T11:19:36.364Z,12.60
2018-04-22T11:22:02.633Z,13.07
2018-04-22T11:24:28.920Z,9.80
2018-04-22T11:26:55.263Z,14.80
2018-04-22T11:29:21.514Z,11.90
2018-04-22T11:31:48.072Z,15.80
2018-04-22T11:34:14.283Z,12.13
2018-04-22T11:36:40.501Z,14.73
2018-04-22T11:39:06.779Z,11.97
2018-04-22T11:41:33.019Z,12.33
2018-04-22T11:43:59.263Z,12.00
2018-04-22T11:46:25.497Z,18.33
2018-04-22T11:48:51.735Z,18.20
2018-04-22T11:51:17.976Z,16.53
2018-04-22T11:53:44.284Z,17.33
2018-04-22T11:56:10.495Z,16.57
2018-04-22T11:58:37.472Z,11.30
2018-04-22T12:01:03.711Z,17.70
2018-04-22T12:03:29.944Z,15.50
2018-04-22T12:05:56.176Z,13.90
2018-04-22T12:08:23.173Z,14.23
2018-04-22T12:10:49.386Z,13.50
2018-04-22T12:13:15.654Z,11.73
2018-04-22T12:15:41.959Z,12.43
2018-04-22T12:18:08.206Z,11.67
2018-04-22T12:20:34.427Z,15.43
2018-04-22T12:23:00.672Z,11.93
2018-04-22T12:25:27.647Z,15.00
2018-04-22T12:27:53.871Z,17.43
2018-04-22T12:30:20.861Z,13.97
2018-04-22T12:32:47.339Z,15.73
2018-04-22T12:35:13.579Z,10.53
2018-04-22T12:37:39.828Z,12.60
2018-04-22T12:40:06.139Z,14.03
2018-04-22T12:42:32.364Z,16.03
2018-04-22T12:44:58.582Z,10.90
2018-04-22T12:47:25.554Z,13.63
2018-04-22T12:49:51.769Z,8.67
2018-04-22T12:52:18.027Z,9.90
2018-04-22T12:54:44.995Z,14.50
2018-04-22T12:57:11.220Z,8.60
2018-04-22T12:59:37.492Z,9.90
2018-04-22T13:02:03.726Z,11.30
2018-04-22T13:04:29.936Z,16.37
2018-04-22T13:06:56.898Z,11.83
2018-04-22T13:09:23.873Z,15.40
2018-04-22T13:11:50.091Z,11.20
2018-04-22T13:14:17.182Z,11.80
2018-04-22T13:16:43.405Z,9.37
2018-04-22T13:19:10.377Z,8.00
2018-04-22T13:21:36.665Z,10.90
2018-04-22T13:24:02.937Z,13.03
2018-04-22T13:26:29.180Z,8.93
2018-04-22T13:28:56.162Z,10.03
2018-04-22T13:31:22.433Z,11.20
2018-04-22T13:33:48.799Z,8.80
2018-04-22T13:36:15.076Z,11.03
2018-04-22T13:38:42.052Z,15.00
2018-04-22T13:41:08.307Z,11.13
2018-04-22T13:43:34.593Z,11.60
2018-04-22T13:46:01.567Z,10.70
2018-04-22T13:48:28.542Z,9.20
2018-04-22T13:50:54.781Z,13.23
2018-04-22T13:53:20.987Z,12.10
2018-04-22T13:55:47.212Z,6.83
2018-04-22T13:58:13.457Z,10.93
2018-04-22T14:00:39.708Z,8.87
2018-04-22T14:03:05.959Z,13.60
2018-04-22T14:05:32.239Z,9.50
2018-04-22T14:07:58.452Z,8.10
2018-04-22T14:10:24.699Z,9.50
2018-04-22T14:12:50.916Z,10.33
2018-04-22T14:15:17.875Z,8.30
2018-04-22T14:17:44.103Z,10.23
2018-04-22T14:20:10.416Z,19.13
2018-04-22T14:22:36.618Z,10.70
2018-04-22T14:25:02.899Z,6.87
2018-04-22T14:27:29.115Z,9.50
2018-04-22T14:29:55.330Z,6.90
2018-04-22T14:32:22.299Z,10.20
2018-04-22T14:34:48.907Z,9.60
2018-04-22T14:37:15.125Z,11.70
2018-04-22T14:39:41.347Z,8.80
2018-04-22T14:42:07.627Z,7.80
2018-04-22T14:44:46.137Z,8.60
2018-04-22T14:47:12.385Z,7.00
2018-04-22T14:49:38.671Z,11.53
2018-04-22T14:52:04.887Z,10.00
2018-04-22T14:54:31.126Z,7.20
2018-04-22T14:56:57.372Z,8.53
2018-04-22T14:59:23.641Z,12.53
2018-04-22T15:01:49.898Z,6.57
2018-04-22T15:04:16.145Z,9.03
2018-04-22T15:06:42.383Z,10.63
2018-04-22T15:09:08.626Z,8.30
2018-04-22T15:11:34.850Z,8.20
2018-04-22T15:14:01.814Z,9.20
2018-04-22T15:16:28.067Z,8.50
2018-04-22T15:18:54.316Z,9.13
2018-04-22T15:21:20.525Z,7.30
2018-04-22T15:23:46.807Z,6.17
2018-04-22T15:26:13.050Z,6.27
2018-04-22T15:28:39.271Z,6.10
2018-04-22T15:31:05.507Z,7.17
2018-04-22T15:33:31.765Z,9.87
2018-04-22T15:35:58.126Z,12.00
2018-04-22T15:38:24.374Z,7.60
2018-04-22T15:40:50.641Z,5.80
2018-04-22T15:43:17.601Z,8.70
2018-04-22T15:45:43.868Z,11.23
2018-04-22T15:48:10.108Z,8.00
2018-04-22T15:50:36.356Z,8.93
2018-04-22T15:53:02.610Z,12.03
2018-04-22T15:55:28.856Z,9.83
2018-04-22T15:57:55.084Z,7.57
2018-04-22T16:00:21.357Z,6.43
2018-04-22T16:02:47.590Z,8.00
2018-04-22T16:05:13.832Z,8.97
2018-04-22T16:07:40.069Z,9.73
2018-04-22T16:10:06.321Z,8.20
2018-04-22T16:12:32.560Z,6.37
2018-04-22T16:14:58.801Z,9.57
2018-04-22T16:17:25.045Z,13.83
2018-04-22T16:19:51.269Z,6.70
2018-04-22T16:22:17.511Z,10.20
2018-04-22T16:24:43.751Z,6.60
2018-04-22T16:27:09.984Z,9.70
2018-04-22T16:29:36.373Z,15.90
2018-04-22T16:32:03.370Z,11.83
2018-04-22T16:34:29.582Z,13.40
2018-04-22T16:36:55.954Z,9.17
2018-04-22T16:39:22.954Z,9.20
2018-04-22T16:41:49.156Z,8.90
2018-04-22T16:44:15.392Z,8.57
2018-04-22T16:46:41.600Z,7.90
2018-04-22T16:49:08.566Z,15.60
2018-04-22T16:51:34.786Z,9.83
2018-04-22T16:54:01.745Z,8.87
2018-04-22T16:56:28.709Z,14.50
2018-04-22T16:58:55.690Z,9.33
2018-04-22T17:01:21.944Z,8.33
2018-04-22T17:03:48.168Z,20.50
2018-04-22T17:06:14.417Z,12.80
2018-04-22T17:08:40.720Z,7.47
2018-04-22T17:11:06.950Z,7.80
2018-04-22T17:13:33.182Z,12.23
2018-04-22T17:15:59.414Z,9.30
2018-04-22T17:18:25.638Z,8.97
2018-04-22T17:20:51.900Z,6.63
2018-04-22T17:23:18.110Z,7.30
2018-04-22T17:25:44.346Z,13.00
2018-04-22T17:28:10.585Z,11.40
2018-04-22T17:30:37.578Z,12.17
2018-04-22T17:33:03.827Z,8.03
2018-04-22T17:35:30.108Z,10.43
2018-04-22T17:37:56.943Z,14.63
2018-04-22T17:40:23.881Z,14.67
2018-04-22T17:42:50.121Z,13.47
2018-04-22T17:45:16.365Z,9.47
2018-04-22T17:47:42.574Z,7.07
2018-04-22T17:50:08.820Z,6.83
2018-04-22T17:52:35.053Z,7.60
2018-04-22T17:55:02.050Z,6.77
2018-04-22T17:57:29.051Z,14.67
2018-04-22T17:59:55.280Z,9.47
2018-04-22T18:02:21.532Z,8.43
2018-04-22T18:04:47.782Z,8.73
2018-04-22T18:07:14.022Z,11.43
2018-04-22T18:09:40.289Z,19.63
2018-04-22T18:12:07.714Z,6.67
2018-04-22T18:14:34.737Z,9.80
2018-04-22T18:17:00.958Z,12.33
2018-04-22T18:19:27.233Z,10.87
2018-04-22T18:21:54.219Z,9.80
2018-04-22T18:24:20.485Z,19.30
2018-04-22T18:26:46.755Z,7.80
2018-04-22T18:29:13.730Z,12.23
2018-04-22T18:31:40.742Z,12.50
2018-04-22T18:34:07.055Z,8.77
2018-04-22T18:36:33.295Z,11.50
2018-04-22T18:38:59.718Z,19.97
2018-04-22T18:41:26.752Z,11.73
2018-04-22T18:43:53.025Z,8.33
2018-04-22T18:46:19.594Z,9.47
2018-04-22T18:48:45.923Z,6.63
2018-04-22T18:51:12.222Z,9.20
2018-04-22T18:53:38.507Z,10.27
2018-04-22T18:56:05.249Z,9.27
2018-04-22T18:58:31.534Z,10.80
2018-04-22T19:00:58.574Z,9.00
2018-04-22T19:03:24.899Z,10.60
2018-04-22T19:05:51.123Z,12.03
2018-04-22T19:08:18.124Z,13.70
2018-04-22T19:10:44.442Z,13.47
2018-04-22T19:13:10.722Z,12.70
2018-04-22T19:15:37.027Z,11.70
2018-04-22T19:18:03.339Z,7.63
2018-04-22T19:20:29.630Z,12.80
2018-04-22T19:22:55.902Z,17.53
2018-04-22T19:25:22.248Z,8.60
2018-04-22T19:27:48.567Z,16.60
2018-04-22T19:30:14.858Z,10.20
2018-04-22T19:32:41.932Z,17.93
2018-04-22T19:35:08.215Z,9.33
2018-04-22T19:37:34.489Z,13.17
2018-04-22T19:40:01.141Z,9.10
2018-04-22T19:42:27.443Z,8.80
2018-04-22T19:44:53.729Z,8.93
2018-04-22T19:47:20.841Z,8.83
2018-04-22T19:49:47.126Z,11.43
2018-04-22T19:52:14.166Z,18.83
2018-04-22T19:54:40.526Z,19.10
2018-04-22T19:57:06.899Z,11.63
2018-04-22T19:59:33.268Z,11.63
2018-04-22T20:01:59.581Z,16.23
2018-04-22T20:04:25.880Z,20.53
2018-04-22T20:06:52.153Z,13.40
2018-04-22T20:09:19.184Z,13.33
2018-04-22T20:11:45.478Z,14.20
2018-04-22T20:14:11.747Z,21.63
2018-04-22T20:16:39.054Z,16.00
2018-04-22T20:19:05.349Z,23.73
2018-04-22T20:21:31.626Z,16.63
2018-04-22T20:23:59.571Z,20.63
2018-04-22T20:26:25.833Z,13.73
2018-04-22T20:28:52.105Z,13.10
2018-04-22T20:31:19.111Z,13.07
2018-04-22T20:33:45.384Z,13.17
2018-04-22T20:36:12.395Z,13.47
2018-04-22T20:38:38.679Z,15.93
2018-04-22T20:41:05.325Z,14.50
2018-04-22T20:43:31.559Z,16.83
2018-04-22T20:45:57.826Z,13.33
2018-04-22T20:48:24.057Z,13.17
2018-04-22T20:50:50.307Z,17.90
2018-04-22T20:53:16.568Z,24.53
2018-04-22T20:55:42.784Z,27.13
2018-04-22T20:58:09.034Z,24.83
2018-04-22T21:00:35.287Z,34.03
2018-04-22T21:03:02.258Z,22.70
2018-04-22T21:05:28.515Z,17.23
2018-04-22T21:07:54.760Z,16.43
2018-04-22T21:10:21.027Z,19.63
2018-04-22T21:12:47.258Z,20.87
2018-04-22T21:15:13.486Z,22.63
2018-04-22T21:17:40.444Z,17.50
2018-04-22T21:20:06.687Z,20.80
2018-04-22T21:22:32.942Z,17.80
2018-04-22T21:24:59.157Z,18.40
2018-04-22T21:27:25.375Z,20.83
2018-04-22T21:29:52.349Z,14.27
2018-04-22T21:32:18.592Z,22.47
2018-04-22T21:34:44.833Z,29.03
2018-04-22T21:37:11.068Z,19.03
2018-04-22T21:39:37.289Z,23.17
2018-04-22T21:42:04.422Z,19.47
2018-04-22T21:44:30.663Z,22.10
2018-04-22T21:46:56.896Z,17.93
2018-04-22T21:49:23.123Z,20.30
2018-04-22T21:51:49.353Z,17.60
2018-04-22T21:54:15.591Z,20.27
2018-04-22T21:56:41.805Z,16.30
2018-04-22T21:59:08.191Z,17.60
2018-04-22T22:01:34.427Z,21.23
2018-04-22T22:04:00.661Z,23.13
2018-04-22T22:06:26.916Z,20.83
2018-04-22T22:08:53.195Z,17.63
2018-04-22T22:11:20.135Z,23.00
2018-04-22T22:13:46.355Z,22.00
2018-04-22T22:16:12.588Z,19.83
2018-04-22T22:18:38.814Z,20.57
2018-04-22T22:21:05.045Z,23.10
2018-04-22T22:23:31.239Z,23.73
2018-04-22T22:25:58.191Z,22.27
2018-04-22T22:28:24.463Z,37.60
2018-04-22T22:30:50.678Z,20.30
2018-04-22T22:33:16.898Z,19.80
2018-04-22T22:35:43.132Z,18.03
2018-04-22T22:38:09.400Z,25.63
2018-04-22T22:40:36.394Z,21.23
2018-04-22T22:43:03.001Z,21.53
2018-04-22T22:45:29.237Z,18.87
2018-04-22T22:47:55.456Z,20.10
2018-04-22T22:50:21.712Z,18.47
2018-04-22T22:52:47.926Z,19.20
2018-04-22T22:55:14.141Z,22.40
2018-04-22T22:57:40.381Z,17.07
2018-04-22T23:00:06.637Z,21.27
2018-04-22T23:02:32.872Z,21.97
2018-04-22T23:04:59.155Z,21.70
2018-04-22T23:07:25.371Z,26.83
2018-04-22T23:09:51.598Z,17.87
2018-04-22T23:12:17.837Z,16.70
2018-04-22T23:14:44.044Z,28.63
2018-04-22T23:17:11.003Z,18.07
2018-04-22T23:19:37.969Z,21.00
2018-04-22T23:22:04.199Z,16.33
2018-04-22T23:24:31.150Z,21.40
2018-04-22T23:26:58.157Z,18.83
2018-04-22T23:29:24.413Z,19.00
2018-04-22T23:31:50.637Z,18.60
2018-04-22T23:34:16.871Z,22.43
2018-04-22T23:36:43.119Z,17.77
2018-04-22T23:39:09.338Z,21.80
2018-04-22T23:41:35.589Z,18.00
2018-04-22T23:44:02.001Z,25.80
2018-04-22T23:46:28.180Z,21.50
2018-04-22T23:48:54.450Z,19.30
2018-04-22T23:51:20.678Z,22.30
2018-04-22T23:53:46.901Z,19.30
2018-04-22T23:56:13.151Z,16.73
2018-04-22T23:58:39.382Z,24.13
